sensor_id;sensor_type;location;lat;lon;timestamp;pressure;altitude;pressure_sealevel;temperature;humidity
56912;BME280;42800;53.928;27.662;2023-03-07T00:00:49;96789.47;;;-3.43;100.00
56912;BME280;42800;53.928;27.662;2023-03-07T00:03:16;96784.31;;;-3.48;100.00
56912;BME280;42800;53.928;27.662;2023-03-07T00:05:43;96784.31;;;-3.48;100.00
56912;BME280;42800;53.928;27.662;2023-03-07T00:08:09;96780.41;;;-3.51;100.00
56912;BME280;42800;53.928;27.662;2023-03-07T00:10:36;96780.41;;;-3.51;100.00
56912;BME280;42800;53.928;27.662;2023-03-07T00:13:03;96777.09;;;-3.36;100.00
56912;BME280;42800;53.928;27.662;2023-03-07T00:15:30;96777.09;;;-3.36;100.00
56912;BME280;42800;53.928;27.662;2023-03-07T00:17:56;96779.88;;;-3.44;100.00
56912;BME280;42800;53.928;27.662;2023-03-07T00:20:23;96782.31;;;-3.51;100.00
56912;BME280;42800;53.928;27.662;2023-03-07T00:22:49;96769.47;;;-3.58;100.00
56912;BME280;42800;53.928;27.662;2023-03-07T00:25:15;96754.78;;;-3.40;100.00
56912;BME280;42800;53.928;27.662;2023-03-07T00:27:41;96760.91;;;-3.39;100.00
56912;BME280;42800;53.928;27.662;2023-03-07T00:30:08;96755.75;;;-3.44;100.00
56912;BME280;42800;53.928;27.662;2023-03-07T00:32:37;96751.97;;;-3.31;100.00
56912;BME280;42800;53.928;27.662;2023-03-07T00:35:04;96757.66;;;-3.45;100.00
56912;BME280;42800;53.928;27.662;2023-03-07T00:37:30;96755.44;;;-3.43;100.00
56912;BME280;42800;53.928;27.662;2023-03-07T00:39:56;96750.44;;;-3.32;100.00
56912;BME280;42800;53.928;27.662;2023-03-07T00:42:23;96743.41;;;-3.24;100.00
56912;BME280;42800;53.928;27.662;2023-03-07T00:44:49;96752.75;;;-3.31;100.00
56912;BME280;42800;53.928;27.662;2023-03-07T00:47:15;96743.84;;;-3.35;100.00
56912;BME280;42800;53.928;27.662;2023-03-07T00:49:42;96748.44;;;-3.23;100.00
56912;BME280;42800;53.928;27.662;2023-03-07T00:52:08;96746.66;;;-3.19;100.00
56912;BME280;42800;53.928;27.662;2023-03-07T00:54:34;96747.44;;;-3.18;100.00
56912;BME280;42800;53.928;27.662;2023-03-07T00:57:01;96743.28;;;-3.28;100.00
56912;BME280;42800;53.928;27.662;2023-03-07T00:59:27;96731.22;;;-3.34;100.00
56912;BME280;42800;53.928;27.662;2023-03-07T01:01:53;96727.22;;;-3.16;100.00
56912;BME280;42800;53.928;27.662;2023-03-07T01:04:19;96729.44;;;-3.18;100.00
56912;BME280;42800;53.928;27.662;2023-03-07T01:06:46;96732.69;;;-3.12;100.00
56912;BME280;42800;53.928;27.662;2023-03-07T01:09:12;96725.63;;;-3.17;100.00
56912;BME280;42800;53.928;27.662;2023-03-07T01:11:39;96727.09;;;-3.19;100.00
56912;BME280;42800;53.928;27.662;2023-03-07T01:14:05;96723.22;;;-3.10;100.00
56912;BME280;42800;53.928;27.662;2023-03-07T01:16:33;96727.09;;;-3.19;100.00
56912;BME280;42800;53.928;27.662;2023-03-07T01:19:02;96723.31;;;-3.06;100.00
56912;BME280;42800;53.928;27.662;2023-03-07T01:21:31;96732.69;;;-3.00;100.00
56912;BME280;42800;53.928;27.662;2023-03-07T01:23:58;96737.50;;;-3.05;100.00
56912;BME280;42800;53.928;27.662;2023-03-07T01:26:26;96740.50;;;-3.07;100.00
56912;BME280;42800;53.928;27.662;2023-03-07T01:28:54;96718.16;;;-3.11;100.00
56912;BME280;42800;53.928;27.662;2023-03-07T01:31:22;96705.09;;;-3.25;100.00
56912;BME280;42800;53.928;27.662;2023-03-07T01:33:49;96715.03;;;-2.89;100.00
56912;BME280;42800;53.928;27.662;2023-03-07T01:36:17;96729.88;;;-2.91;100.00
56912;BME280;42800;53.928;27.662;2023-03-07T01:38:44;96733.34;;;-2.91;100.00
56912;BME280;42800;53.928;27.662;2023-03-07T01:41:11;96729.56;;;-2.90;100.00
56912;BME280;42800;53.928;27.662;2023-03-07T01:43:37;96739.50;;;-2.90;100.00
56912;BME280;42800;53.928;27.662;2023-03-07T01:49:21;96722.06;;;-2.84;100.00
56912;BME280;42800;53.928;27.662;2023-03-07T01:51:51;96735.25;;;-2.91;100.00
56912;BME280;42800;53.928;27.662;2023-03-07T01:54:22;96731.56;;;-2.74;100.00
56912;BME280;42800;53.928;27.662;2023-03-07T01:56:50;96738.03;;;-2.75;100.00
56912;BME280;42800;53.928;27.662;2023-03-07T01:59:20;96741.50;;;-2.75;100.00
56912;BME280;42800;53.928;27.662;2023-03-07T02:01:49;96745.06;;;-2.71;100.00
56912;BME280;42800;53.928;27.662;2023-03-07T02:04:19;96750.09;;;-2.69;100.00
56912;BME280;42800;53.928;27.662;2023-03-07T02:06:47;96744.53;;;-2.76;100.00
56912;BME280;42800;53.928;27.662;2023-03-07T02:09:17;96745.28;;;-2.64;100.00
56912;BME280;42800;53.928;27.662;2023-03-07T02:11:46;96738.13;;;-2.59;100.00
56912;BME280;42800;53.928;27.662;2023-03-07T02:14:14;96748.63;;;-2.67;100.00
56912;BME280;42800;53.928;27.662;2023-03-07T02:16:40;96744.69;;;-2.57;100.00
56912;BME280;42800;53.928;27.662;2023-03-07T02:19:16;96746.97;;;-2.59;100.00
56912;BME280;42800;53.928;27.662;2023-03-07T02:21:52;96745.50;;;-2.56;100.00
56912;BME280;42800;53.928;27.662;2023-03-07T02:24:26;96738.19;;;-2.44;100.00
56912;BME280;42800;53.928;27.662;2023-03-07T02:26:56;96738.44;;;-2.49;100.00
56912;BME280;42800;53.928;27.662;2023-03-07T02:29:23;96746.81;;;-2.50;100.00
56912;BME280;42800;53.928;27.662;2023-03-07T02:31:49;96736.75;;;-2.53;100.00
56912;BME280;42800;53.928;27.662;2023-03-07T02:34:20;96751.66;;;-2.56;100.00
56912;BME280;42800;53.928;27.662;2023-03-07T02:36:48;96751.41;;;-2.51;100.00
56912;BME280;42800;53.928;27.662;2023-03-07T02:39:16;96745.94;;;-2.54;100.00
56912;BME280;42800;53.928;27.662;2023-03-07T02:41:43;96749.06;;;-2.52;100.00
56912;BME280;42800;53.928;27.662;2023-03-07T02:44:10;96740.88;;;-2.44;100.00
56912;BME280;42800;53.928;27.662;2023-03-07T02:46:36;96741.69;;;-2.43;100.00
56912;BME280;42800;53.928;27.662;2023-03-07T02:49:02;96740.66;;;-2.39;100.00
56912;BME280;42800;53.928;27.662;2023-03-07T02:51:29;96737.88;;;-2.54;100.00
56912;BME280;42800;53.928;27.662;2023-03-07T02:53:55;96722.16;;;-2.56;100.00
56912;BME280;42800;53.928;27.662;2023-03-07T02:56:22;96696.03;;;-2.84;100.00
56912;BME280;42800;53.928;27.662;2023-03-07T02:58:48;96685.38;;;-2.55;100.00
56912;BME280;42800;53.928;27.662;2023-03-07T03:01:15;96683.59;;;-2.64;100.00
56912;BME280;42800;53.928;27.662;2023-03-07T03:03:42;96686.13;;;-2.43;100.00
56912;BME280;42800;53.928;27.662;2023-03-07T03:06:09;96681.16;;;-2.41;100.00
56912;BME280;42800;53.928;27.662;2023-03-07T03:08:35;96686.44;;;-2.44;100.00
56912;BME280;42800;53.928;27.662;2023-03-07T03:11:01;96669.91;;;-2.46;100.00
56912;BME280;42800;53.928;27.662;2023-03-07T03:13:27;96653.28;;;-2.52;100.00
56912;BME280;42800;53.928;27.662;2023-03-07T03:15:54;96659.50;;;-2.48;100.00
56912;BME280;42800;53.928;27.662;2023-03-07T03:18:21;96650.41;;;-2.59;100.00
56912;BME280;42800;53.928;27.662;2023-03-07T03:20:48;96660.00;;;-2.58;100.00
56912;BME280;42800;53.928;27.662;2023-03-07T03:23:14;96644.03;;;-2.67;100.00
56912;BME280;42800;53.928;27.662;2023-03-07T03:25:40;96633.28;;;-2.54;100.00
56912;BME280;42800;53.928;27.662;2023-03-07T03:28:06;96622.50;;;-2.42;100.00
56912;BME280;42800;53.928;27.662;2023-03-07T03:30:33;96631.13;;;-2.49;100.00
56912;BME280;42800;53.928;27.662;2023-03-07T03:33:00;96638.00;;;-2.35;100.00
56912;BME280;42800;53.928;27.662;2023-03-07T03:35:27;96633.88;;;-2.33;100.00
56912;BME280;42800;53.928;27.662;2023-03-07T03:37:53;96639.25;;;-2.17;100.00
56912;BME280;42800;53.928;27.662;2023-03-07T03:40:20;96640.38;;;-2.18;100.00
56912;BME280;42800;53.928;27.662;2023-03-07T03:42:46;96646.69;;;-2.26;100.00
56912;BME280;42800;53.928;27.662;2023-03-07T03:45:13;96638.09;;;-2.32;100.00
56912;BME280;42800;53.928;27.662;2023-03-07T03:47:39;96643.59;;;-2.41;100.00
56912;BME280;42800;53.928;27.662;2023-03-07T03:50:07;96645.09;;;-2.43;100.00
56912;BME280;42800;53.928;27.662;2023-03-07T03:52:35;96646.56;;;-2.46;100.00
56912;BME280;42800;53.928;27.662;2023-03-07T03:55:01;96648.00;;;-2.48;100.00
56912;BME280;42800;53.928;27.662;2023-03-07T03:57:28;96642.84;;;-2.41;100.00
56912;BME280;42800;53.928;27.662;2023-03-07T03:59:54;96641.38;;;-2.39;100.00
56912;BME280;42800;53.928;27.662;2023-03-07T04:02:20;96644.16;;;-2.35;100.00
56912;BME280;42800;53.928;27.662;2023-03-07T04:04:46;96640.78;;;-2.32;100.00
56912;BME280;42800;53.928;27.662;2023-03-07T04:07:12;96644.88;;;-2.22;100.00
56912;BME280;42800;53.928;27.662;2023-03-07T04:09:39;96651.03;;;-2.22;100.00
56912;BME280;42800;53.928;27.662;2023-03-07T04:12:06;96653.16;;;-2.27;100.00
56912;BME280;42800;53.928;27.662;2023-03-07T04:14:32;96651.81;;;-2.21;100.00
56912;BME280;42800;53.928;27.662;2023-03-07T04:16:59;96644.03;;;-2.26;100.00
56912;BME280;42800;53.928;27.662;2023-03-07T04:19:25;96637.03;;;-2.15;100.00
56912;BME280;42800;53.928;27.662;2023-03-07T04:21:51;96631.78;;;-2.24;100.00
56912;BME280;42800;53.928;27.662;2023-03-07T04:24:17;96638.50;;;-2.46;100.00
56912;BME280;42800;53.928;27.662;2023-03-07T04:26:44;96663.88;;;-2.15;100.00
56912;BME280;42800;53.928;27.662;2023-03-07T04:29:10;96654.19;;;-2.04;100.00
56912;BME280;42800;53.928;27.662;2023-03-07T04:31:37;96632.88;;;-1.97;100.00
56912;BME280;42800;53.928;27.662;2023-03-07T04:34:03;96640.72;;;-2.48;100.00
56912;BME280;42800;53.928;27.662;2023-03-07T04:36:29;96649.66;;;-2.16;100.00
56912;BME280;42800;53.928;27.662;2023-03-07T04:38:55;96652.91;;;-1.94;100.00
56912;BME280;42800;53.928;27.662;2023-03-07T04:41:22;96663.13;;;-2.00;100.00
56912;BME280;42800;53.928;27.662;2023-03-07T04:43:51;96654.47;;;-1.93;100.00
56912;BME280;42800;53.928;27.662;2023-03-07T04:46:18;96651.34;;;-1.95;100.00
56912;BME280;42800;53.928;27.662;2023-03-07T04:48:44;96649.50;;;-2.07;100.00
56912;BME280;42800;53.928;27.662;2023-03-07T04:51:11;96640.09;;;-1.85;100.00
56912;BME280;42800;53.928;27.662;2023-03-07T04:53:37;96649.59;;;-2.03;100.00
56912;BME280;42800;53.928;27.662;2023-03-07T04:56:06;96645.28;;;-1.92;100.00
56912;BME280;42800;53.928;27.662;2023-03-07T04:58:33;96651.53;;;-1.88;100.00
56912;BME280;42800;53.928;27.662;2023-03-07T05:01:01;96652.03;;;-1.98;100.00
56912;BME280;42800;53.928;27.662;2023-03-07T05:03:28;96645.91;;;-1.83;100.00
56912;BME280;42800;53.928;27.662;2023-03-07T05:05:54;96648.00;;;-1.76;100.00
56912;BME280;42800;53.928;27.662;2023-03-07T05:08:21;96645.81;;;-1.86;100.00
56912;BME280;42800;53.928;27.662;2023-03-07T05:10:48;96654.47;;;-1.93;100.00
56912;BME280;42800;53.928;27.662;2023-03-07T05:13:14;96665.03;;;-1.84;100.00
56912;BME280;42800;53.928;27.662;2023-03-07T05:15:42;96668.88;;;-1.85;100.00
56912;BME280;42800;53.928;27.662;2023-03-07T05:18:08;96670.88;;;-1.82;100.00
56912;BME280;42800;53.928;27.662;2023-03-07T05:20:35;96670.31;;;-1.88;100.00
56912;BME280;42800;53.928;27.662;2023-03-07T05:23:01;96665.22;;;-1.93;100.00
56912;BME280;42800;53.928;27.662;2023-03-07T05:25:27;96669.09;;;-1.91;100.00
56912;BME280;42800;53.928;27.662;2023-03-07T05:27:53;96674.22;;;-1.85;100.00
56912;BME280;42800;53.928;27.662;2023-03-07T05:30:19;96678.06;;;-1.86;100.00
56912;BME280;42800;53.928;27.662;2023-03-07T05:32:46;96677.78;;;-1.81;100.00
56912;BME280;42800;53.928;27.662;2023-03-07T05:35:13;96670.72;;;-2.02;100.00
56912;BME280;42800;53.928;27.662;2023-03-07T05:37:40;96681.19;;;-2.13;100.00
56912;BME280;42800;53.928;27.662;2023-03-07T05:40:07;96678.59;;;-2.09;100.00
56912;BME280;42800;53.928;27.662;2023-03-07T05:42:35;96699.13;;;-2.01;100.00
56912;BME280;42800;53.928;27.662;2023-03-07T05:45:02;96703.91;;;-1.94;100.00
56912;BME280;42800;53.928;27.662;2023-03-07T05:47:28;96699.53;;;-1.86;100.00
56912;BME280;42800;53.928;27.662;2023-03-07T05:49:55;96699.03;;;-1.76;100.00
56912;BME280;42800;53.928;27.662;2023-03-07T05:52:22;96693.66;;;-1.76;100.00
56912;BME280;42800;53.928;27.662;2023-03-07T05:54:48;96694.84;;;-1.74;100.00
56912;BME280;42800;53.928;27.662;2023-03-07T05:57:14;96696.75;;;-1.74;100.00
56912;BME280;42800;53.928;27.662;2023-03-07T05:59:40;96698.34;;;-1.42;100.00
56912;BME280;42800;53.928;27.662;2023-03-07T06:02:07;96694.34;;;-1.00;100.00
56912;BME280;42800;53.928;27.662;2023-03-07T06:04:33;96686.28;;;-0.65;100.00
56912;BME280;42800;53.928;27.662;2023-03-07T06:06:59;96694.31;;;0.09;100.00
56912;BME280;42800;53.928;27.662;2023-03-07T06:09:26;96728.59;;;0.97;100.00
56912;BME280;42800;53.928;27.662;2023-03-07T06:11:52;96819.44;;;1.62;100.00
56912;BME280;42800;53.928;27.662;2023-03-07T06:14:18;96929.06;;;2.16;100.00
56912;BME280;42800;53.928;27.662;2023-03-07T06:16:45;97011.34;;;2.68;100.00
56912;BME280;42800;53.928;27.662;2023-03-07T06:19:11;97081.53;;;2.34;100.00
56912;BME280;42800;53.928;27.662;2023-03-07T06:21:37;97094.34;;;2.38;100.00
56912;BME280;42800;53.928;27.662;2023-03-07T06:24:04;97117.38;;;2.77;100.00
56912;BME280;42800;53.928;27.662;2023-03-07T06:26:32;97126.88;;;3.17;100.00
56912;BME280;42800;53.928;27.662;2023-03-07T06:28:59;97167.66;;;3.58;100.00
56912;BME280;42800;53.928;27.662;2023-03-07T06:31:26;97186.09;;;4.09;100.00
56912;BME280;42800;53.928;27.662;2023-03-07T06:33:52;97211.28;;;4.43;100.00
56912;BME280;42800;53.928;27.662;2023-03-07T06:36:19;97245.47;;;4.52;100.00
56912;BME280;42800;53.928;27.662;2023-03-07T06:38:45;97264.19;;;5.01;100.00
56912;BME280;42800;53.928;27.662;2023-03-07T06:41:12;97286.13;;;5.26;100.00
56912;BME280;42800;53.928;27.662;2023-03-07T06:43:39;97306.31;;;5.29;100.00
56912;BME280;42800;53.928;27.662;2023-03-07T06:46:05;97312.75;;;5.54;100.00
56912;BME280;42800;53.928;27.662;2023-03-07T06:48:32;97319.53;;;5.27;100.00
56912;BME280;42800;53.928;27.662;2023-03-07T06:50:59;97310.53;;;5.23;100.00
56912;BME280;42800;53.928;27.662;2023-03-07T06:53:30;97323.41;;;5.74;100.00
56912;BME280;42800;53.928;27.662;2023-03-07T06:55:57;97339.31;;;5.75;98.12
56912;BME280;42800;53.928;27.662;2023-03-07T06:58:23;97327.81;;;5.96;95.59
56912;BME280;42800;53.928;27.662;2023-03-07T07:00:50;97336.25;;;5.77;93.33
56912;BME280;42800;53.928;27.662;2023-03-07T07:03:17;97332.16;;;5.53;96.49
56912;BME280;42800;53.928;27.662;2023-03-07T07:05:44;97330.09;;;5.87;94.78
56912;BME280;42800;53.928;27.662;2023-03-07T07:08:10;97340.13;;;5.83;92.24
56912;BME280;42800;53.928;27.662;2023-03-07T07:10:37;97339.16;;;6.05;92.00
56912;BME280;42800;53.928;27.662;2023-03-07T07:13:04;97343.56;;;6.24;89.92
56912;BME280;42800;53.928;27.662;2023-03-07T07:15:30;97350.56;;;6.29;89.00
56912;BME280;42800;53.928;27.662;2023-03-07T07:17:57;97346.09;;;6.69;88.36
56912;BME280;42800;53.928;27.662;2023-03-07T07:20:24;97349.59;;;6.66;83.95
56912;BME280;42800;53.928;27.662;2023-03-07T07:22:50;97356.63;;;6.74;81.94
56912;BME280;42800;53.928;27.662;2023-03-07T07:25:16;97364.53;;;7.18;80.17
56912;BME280;42800;53.928;27.662;2023-03-07T07:27:42;97362.16;;;6.95;79.56
56912;BME280;42800;53.928;27.662;2023-03-07T07:30:10;97369.88;;;6.79;78.93
56912;BME280;42800;53.928;27.662;2023-03-07T07:32:37;97373.00;;;6.84;78.82
56912;BME280;42800;53.928;27.662;2023-03-07T07:35:04;97371.19;;;7.28;78.04
56912;BME280;42800;53.928;27.662;2023-03-07T07:37:31;97363.75;;;7.07;77.65
56912;BME280;42800;53.928;27.662;2023-03-07T07:39:57;97363.66;;;6.82;78.47
56912;BME280;42800;53.928;27.662;2023-03-07T07:42:24;97356.22;;;6.72;80.45
56912;BME280;42800;53.928;27.662;2023-03-07T07:44:50;97352.13;;;7.53;79.36
56912;BME280;42800;53.928;27.662;2023-03-07T07:47:16;97366.56;;;8.00;75.03
56912;BME280;42800;53.928;27.662;2023-03-07T07:49:42;97353.25;;;8.13;74.45
56912;BME280;42800;53.928;27.662;2023-03-07T07:52:09;97366.56;;;7.46;72.96
56912;BME280;42800;53.928;27.662;2023-03-07T07:54:35;97362.66;;;7.47;73.20
56912;BME280;42800;53.928;27.662;2023-03-07T07:57:02;97362.66;;;7.44;73.86
56912;BME280;42800;53.928;27.662;2023-03-07T07:59:28;97364.53;;;7.22;74.95
56912;BME280;42800;53.928;27.662;2023-03-07T08:01:56;97366.56;;;7.50;73.21
56912;BME280;42800;53.928;27.662;2023-03-07T08:04:22;97366.56;;;7.46;73.05
56912;BME280;42800;53.928;27.662;2023-03-07T08:06:48;97370.44;;;7.99;73.40
56912;BME280;42800;53.928;27.662;2023-03-07T08:09:15;97371.16;;;8.46;69.96
56912;BME280;42800;53.928;27.662;2023-03-07T08:11:41;97370.78;;;8.47;68.89
56912;BME280;42800;53.928;27.662;2023-03-07T08:14:08;97374.31;;;8.41;67.62
56912;BME280;42800;53.928;27.662;2023-03-07T08:16:34;97375.91;;;7.88;67.07
56912;BME280;42800;53.928;27.662;2023-03-07T08:19:01;97370.06;;;7.97;69.42
56912;BME280;42800;53.928;27.662;2023-03-07T08:21:27;97365.31;;;8.26;67.92
56912;BME280;42800;53.928;27.662;2023-03-07T08:23:53;97373.41;;;8.83;67.99
56912;BME280;42800;53.928;27.662;2023-03-07T08:26:21;97373.41;;;8.80;67.43
56912;BME280;42800;53.928;27.662;2023-03-07T08:28:47;97373.97;;;9.27;65.59
56912;BME280;42800;53.928;27.662;2023-03-07T08:31:15;97372.44;;;9.18;65.74
56912;BME280;42800;53.928;27.662;2023-03-07T08:33:41;97377.81;;;9.40;64.45
56912;BME280;42800;53.928;27.662;2023-03-07T08:36:08;97374.69;;;9.34;65.67
56912;BME280;42800;53.928;27.662;2023-03-07T08:38:35;97373.13;;;9.37;65.11
56912;BME280;42800;53.928;27.662;2023-03-07T08:41:02;97375.44;;;9.42;64.74
56912;BME280;42800;53.928;27.662;2023-03-07T08:43:31;97372.78;;;9.87;63.60
56912;BME280;42800;53.928;27.662;2023-03-07T08:45:57;97374.81;;;10.21;61.52
56912;BME280;42800;53.928;27.662;2023-03-07T08:48:25;97375.22;;;10.19;60.77
56912;BME280;42800;53.928;27.662;2023-03-07T08:50:51;97373.97;;;9.82;59.41
56912;BME280;42800;53.928;27.662;2023-03-07T08:53:18;97377.16;;;10.19;60.49
56912;BME280;42800;53.928;27.662;2023-03-07T08:55:44;97378.72;;;10.23;60.20
56912;BME280;42800;53.928;27.662;2023-03-07T08:58:11;97379.75;;;9.92;60.56
56912;BME280;42800;53.928;27.662;2023-03-07T09:00:38;97375.31;;;10.08;59.71
56912;BME280;42800;53.928;27.662;2023-03-07T09:03:04;97379.03;;;9.87;59.29
56912;BME280;42800;53.928;27.662;2023-03-07T09:05:34;97381.81;;;9.21;59.41
56912;BME280;42800;53.928;27.662;2023-03-07T09:08:01;97383.13;;;9.61;60.64
56912;BME280;42800;53.928;27.662;2023-03-07T09:10:28;97379.66;;;9.54;60.35
56912;BME280;42800;53.928;27.662;2023-03-07T09:12:54;97378.63;;;9.33;58.86
56912;BME280;42800;53.928;27.662;2023-03-07T09:15:20;97382.69;;;10.15;58.70
56912;BME280;42800;53.928;27.662;2023-03-07T09:17:47;97388.22;;;10.08;57.02
56912;BME280;42800;53.928;27.662;2023-03-07T09:20:14;97393.63;;;10.15;57.78
56912;BME280;42800;53.928;27.662;2023-03-07T09:22:42;97389.88;;;9.98;57.66
56912;BME280;42800;53.928;27.662;2023-03-07T09:25:09;97380.34;;;9.65;55.91
56912;BME280;42800;53.928;27.662;2023-03-07T09:27:35;97384.88;;;8.14;60.37
56912;BME280;42800;53.928;27.662;2023-03-07T09:30:01;97381.66;;;9.42;59.74
56912;BME280;42800;53.928;27.662;2023-03-07T09:32:30;97389.66;;;9.75;57.74
56912;BME280;42800;53.928;27.662;2023-03-07T09:34:57;97386.03;;;9.29;56.45
56912;BME280;42800;53.928;27.662;2023-03-07T09:37:23;97379.41;;;9.30;58.40
56912;BME280;42800;53.928;27.662;2023-03-07T09:39:50;97387.56;;;8.28;59.39
56912;BME280;42800;53.928;27.662;2023-03-07T09:42:19;97381.72;;;7.44;62.11
56912;BME280;42800;53.928;27.662;2023-03-07T09:45:02;97383.31;;;7.73;61.24
56912;BME280;42800;53.928;27.662;2023-03-07T09:47:44;97393.78;;;8.32;60.75
56912;BME280;42800;53.928;27.662;2023-03-07T09:50:19;97388.34;;;8.29;61.23
56912;BME280;42800;53.928;27.662;2023-03-07T09:52:49;97395.78;;;7.99;60.68
56912;BME280;42800;53.928;27.662;2023-03-07T09:55:19;97396.53;;;8.29;60.31
56912;BME280;42800;53.928;27.662;2023-03-07T09:57:49;97402.38;;;8.31;58.88
56912;BME280;42800;53.928;27.662;2023-03-07T10:00:19;97396.13;;;7.37;62.78
56912;BME280;42800;53.928;27.662;2023-03-07T10:02:50;97397.31;;;7.54;59.81
56912;BME280;42800;53.928;27.662;2023-03-07T10:05:27;97394.59;;;7.75;58.77
56912;BME280;42800;53.928;27.662;2023-03-07T10:07:55;97407.38;;;7.25;59.85
56912;BME280;42800;53.928;27.662;2023-03-07T10:10:23;97403.72;;;6.12;63.42
56912;BME280;42800;53.928;27.662;2023-03-07T10:13:01;97407.81;;;5.92;61.61
56912;BME280;42800;53.928;27.662;2023-03-07T10:15:41;97401.94;;;5.41;64.52
56912;BME280;42800;53.928;27.662;2023-03-07T10:18:32;97405.47;;;5.08;63.78
56912;BME280;42800;53.928;27.662;2023-03-07T10:21:06;97404.69;;;5.08;66.82
56912;BME280;42800;53.928;27.662;2023-03-07T10:23:59;97402.41;;;5.47;62.57
56912;BME280;42800;53.928;27.662;2023-03-07T10:26:32;97403.78;;;5.71;60.09
56912;BME280;42800;53.928;27.662;2023-03-07T10:29:07;97411.06;;;5.60;58.91
56912;BME280;42800;53.928;27.662;2023-03-07T10:31:38;97410.13;;;5.08;59.40
56912;BME280;42800;53.928;27.662;2023-03-07T10:34:13;97413.19;;;4.72;60.77
56912;BME280;42800;53.928;27.662;2023-03-07T10:36:43;97413.28;;;4.49;61.95
56912;BME280;42800;53.928;27.662;2023-03-07T10:39:24;97406.00;;;4.27;63.61
56912;BME280;42800;53.928;27.662;2023-03-07T10:41:51;97402.03;;;4.47;63.09
56912;BME280;42800;53.928;27.662;2023-03-07T10:44:19;97402.84;;;4.82;62.04
56912;BME280;42800;53.928;27.662;2023-03-07T10:46:52;97402.34;;;5.40;63.44
56912;BME280;42800;53.928;27.662;2023-03-07T10:49:24;97398.13;;;5.50;61.11
56912;BME280;42800;53.928;27.662;2023-03-07T10:51:57;97395.19;;;5.69;62.68
56912;BME280;42800;53.928;27.662;2023-03-07T10:54:28;97393.63;;;6.12;59.41
56912;BME280;42800;53.928;27.662;2023-03-07T10:57:09;97390.19;;;6.23;57.59
56912;BME280;42800;53.928;27.662;2023-03-07T10:59:39;97387.44;;;6.92;55.78
56912;BME280;42800;53.928;27.662;2023-03-07T11:02:28;97382.09;;;7.31;54.76
56912;BME280;42800;53.928;27.662;2023-03-07T11:04:55;97382.91;;;7.61;55.71
56912;BME280;42800;53.928;27.662;2023-03-07T11:07:27;97391.47;;;8.06;55.08
56912;BME280;42800;53.928;27.662;2023-03-07T11:09:55;97390.72;;;8.01;56.07
56912;BME280;42800;53.928;27.662;2023-03-07T11:12:22;97383.97;;;7.06;55.19
56912;BME280;42800;53.928;27.662;2023-03-07T11:14:50;97386.84;;;5.92;57.87
56912;BME280;42800;53.928;27.662;2023-03-07T11:17:19;97384.31;;;6.87;60.44
56912;BME280;42800;53.928;27.662;2023-03-07T11:19:46;97386.72;;;6.26;60.50
56912;BME280;42800;53.928;27.662;2023-03-07T11:22:20;97387.06;;;6.21;63.25
56912;BME280;42800;53.928;27.662;2023-03-07T11:24:53;97380.75;;;5.17;67.36
56912;BME280;42800;53.928;27.662;2023-03-07T11:27:23;97383.16;;;5.66;65.77
56912;BME280;42800;53.928;27.662;2023-03-07T11:32:54;97378.81;;;4.84;67.10
56912;BME280;42800;53.928;27.662;2023-03-07T11:35:30;97371.19;;;4.63;66.77
56912;BME280;42800;53.928;27.662;2023-03-07T11:38:06;97378.97;;;4.34;70.13
56912;BME280;42800;53.928;27.662;2023-03-07T11:40:41;97371.06;;;4.22;72.15
56912;BME280;42800;53.928;27.662;2023-03-07T11:43:15;97376.28;;;4.08;73.75
56912;BME280;42800;53.928;27.662;2023-03-07T11:45:50;97376.75;;;4.13;74.14
56912;BME280;42800;53.928;27.662;2023-03-07T11:48:33;97372.47;;;4.12;74.31
56912;BME280;42800;53.928;27.662;2023-03-07T11:51:13;97374.59;;;4.26;73.74
56912;BME280;42800;53.928;27.662;2023-03-07T11:53:54;97377.59;;;4.17;74.42
56912;BME280;42800;53.928;27.662;2023-03-07T11:56:26;97382.44;;;4.05;73.83
56912;BME280;42800;53.928;27.662;2023-03-07T12:01:52;97387.59;;;3.87;73.96
56912;BME280;42800;53.928;27.662;2023-03-07T12:04:44;97378.09;;;4.27;72.04
56912;BME280;42800;53.928;27.662;2023-03-07T12:07:36;97390.00;;;4.18;72.31
56912;BME280;42800;53.928;27.662;2023-03-07T12:10:18;97390.00;;;4.18;72.44
56912;BME280;42800;53.928;27.662;2023-03-07T12:12:57;97389.09;;;3.38;78.64
56912;BME280;42800;53.928;27.662;2023-03-07T12:15:32;97388.63;;;4.05;72.21
56912;BME280;42800;53.928;27.662;2023-03-07T12:18:16;97385.13;;;3.78;76.27
56912;BME280;42800;53.928;27.662;2023-03-07T12:20:52;97377.94;;;4.16;75.97
56912;BME280;42800;53.928;27.662;2023-03-07T12:23:26;97387.03;;;4.00;72.24
56912;BME280;42800;53.928;27.662;2023-03-07T12:26:01;97382.59;;;3.43;74.35
56912;BME280;42800;53.928;27.662;2023-03-07T12:28:33;97376.28;;;3.81;74.11
56912;BME280;42800;53.928;27.662;2023-03-07T12:31:10;97371.97;;;3.53;75.37
56912;BME280;42800;53.928;27.662;2023-03-07T12:33:53;97378.72;;;2.78;76.40
56912;BME280;42800;53.928;27.662;2023-03-07T12:36:32;97370.69;;;2.63;79.18
56912;BME280;42800;53.928;27.662;2023-03-07T12:39:02;97380.13;;;2.53;79.96
56912;BME280;42800;53.928;27.662;2023-03-07T12:41:53;97372.19;;;3.22;81.48
56912;BME280;42800;53.928;27.662;2023-03-07T12:44:31;97375.03;;;3.10;80.74
56912;BME280;42800;53.928;27.662;2023-03-07T12:47:01;97374.53;;;3.23;77.81
56912;BME280;42800;53.928;27.662;2023-03-07T12:49:36;97369.81;;;2.39;79.20
56912;BME280;42800;53.928;27.662;2023-03-07T12:52:10;97360.22;;;2.06;80.02
56912;BME280;42800;53.928;27.662;2023-03-07T12:54:43;97360.94;;;2.03;81.74
56912;BME280;42800;53.928;27.662;2023-03-07T12:57:16;97367.88;;;2.40;78.89
56912;BME280;42800;53.928;27.662;2023-03-07T12:59:45;97362.06;;;2.57;82.16
56912;BME280;42800;53.928;27.662;2023-03-07T13:02:19;97363.91;;;2.33;80.23
56912;BME280;42800;53.928;27.662;2023-03-07T13:04:46;97352.00;;;2.19;79.88
56912;BME280;42800;53.928;27.662;2023-03-07T13:07:15;97350.31;;;1.95;78.88